Coles Point, Virginia
Current Conditions -  °F | °C
As of 12:53 PM on Wednesday 28 Jan 2015 (Local Time) from KNUI Reporting Station
Clear Clear  
Wind Chill: 26°   Ceiling: Unl
Heat Index: 35°   Visibility: 10mi
Dew Point:   Wind: 13mph
Humidity: 31%   Direction: 290°WNW
Pressure: 30.19"   Gusts: NA
Location:  38.14°N, 76.64°W
Report Text: KNUI 281753Z AUTO 29011KT 10SM CLR 02/M14 A3019 RMK AO2 SLP221 T00171139 10017 21044 58008
Loading
Personal Weather Stations






























Interactive Weather Map New forecast layout! Learn more

10-Day Weather Forecast

Advertisements
Track Severe Weather on mobile